sensor_id;sensor_type;location;lat;lon;timestamp;temperature;humidity
52024;DHT22;38038;45.922;13.604;2023-01-28T11:27:48;5.30;97.40
52024;DHT22;38038;45.922;13.604;2023-01-28T11:30:29;5.40;97.60
52024;DHT22;38038;45.922;13.604;2023-01-28T11:33:21;5.60;97.10
52024;DHT22;38038;45.922;13.604;2023-01-28T11:35:56;5.60;97.20
52024;DHT22;38038;45.922;13.604;2023-01-28T11:38:24;5.70;96.90
52024;DHT22;38038;45.922;13.604;2023-01-28T11:40:51;5.70;96.60
52024;DHT22;38038;45.922;13.604;2023-01-28T11:43:21;5.90;96.40
52024;DHT22;38038;45.922;13.604;2023-01-28T11:48:43;5.90;96.80
52024;DHT22;38038;45.922;13.604;2023-01-28T11:51:38;6.00;96.80
52024;DHT22;38038;45.922;13.604;2023-01-28T12:08:03;6.30;95.70
52024;DHT22;38038;45.922;13.604;2023-01-28T12:16:56;6.30;95.50
52024;DHT22;38038;45.922;13.604;2023-01-28T12:28:14;6.30;96.20
52024;DHT22;38038;45.922;13.604;2023-01-28T12:31:06;6.20;96.50
52024;DHT22;38038;45.922;13.604;2023-01-28T12:42:12;6.10;95.80
52024;DHT22;38038;45.922;13.604;2023-01-28T12:44:48;6.00;96.10
52024;DHT22;38038;45.922;13.604;2023-01-28T12:47:30;5.80;96.80
52024;DHT22;38038;45.922;13.604;2023-01-28T12:50:30;5.90;96.40
52024;DHT22;38038;45.922;13.604;2023-01-28T12:53:02;6.00;96.10
52024;DHT22;38038;45.922;13.604;2023-01-28T12:55:44;6.00;96.00
52024;DHT22;38038;45.922;13.604;2023-01-28T12:58:38;6.00;96.20
52024;DHT22;38038;45.922;13.604;2023-01-28T13:01:09;6.00;95.80
52024;DHT22;38038;45.922;13.604;2023-01-28T13:03:46;6.00;95.90
52024;DHT22;38038;45.922;13.604;2023-01-28T13:06:21;5.90;96.00
52024;DHT22;38038;45.922;13.604;2023-01-28T13:08:48;5.80;95.90
52024;DHT22;38038;45.922;13.604;2023-01-28T13:11:16;5.70;96.40
52024;DHT22;38038;45.922;13.604;2023-01-28T13:13:44;5.60;96.60
52024;DHT22;38038;45.922;13.604;2023-01-28T13:16:11;5.60;96.00
52024;DHT22;38038;45.922;13.604;2023-01-28T13:21:31;5.60;96.50
52024;DHT22;38038;45.922;13.604;2023-01-28T13:24:20;5.50;96.60
52024;DHT22;38038;45.922;13.604;2023-01-28T13:26:52;5.50;96.50
52024;DHT22;38038;45.922;13.604;2023-01-28T13:31:56;5.50;96.80
52024;DHT22;38038;45.922;13.604;2023-01-28T13:37:00;5.10;97.30
52024;DHT22;38038;45.922;13.604;2023-01-28T13:39:28;5.20;97.10
52024;DHT22;38038;45.922;13.604;2023-01-28T13:42:08;5.00;97.60
52024;DHT22;38038;45.922;13.604;2023-01-28T13:44:36;5.00;97.70
52024;DHT22;38038;45.922;13.604;2023-01-28T13:54:49;5.00;97.50
52024;DHT22;38038;45.922;13.604;2023-01-28T14:19:56;5.20;97.10
52024;DHT22;38038;45.922;13.604;2023-01-28T14:22:23;5.10;97.60
52024;DHT22;38038;45.922;13.604;2023-01-28T14:24:49;5.00;97.60
52024;DHT22;38038;45.922;13.604;2023-01-28T14:27:28;5.10;97.50
52024;DHT22;38038;45.922;13.604;2023-01-28T14:32:33;5.20;97.60
52024;DHT22;38038;45.922;13.604;2023-01-28T14:35:04;5.20;97.30
52024;DHT22;38038;45.922;13.604;2023-01-28T14:37:32;5.00;97.90
52024;DHT22;38038;45.922;13.604;2023-01-28T14:40:01;4.80;97.90
52024;DHT22;38038;45.922;13.604;2023-01-28T14:42:39;4.80;98.30
52024;DHT22;38038;45.922;13.604;2023-01-28T14:47:38;4.60;98.70
52024;DHT22;38038;45.922;13.604;2023-01-28T14:50:29;4.50;98.60
52024;DHT22;38038;45.922;13.604;2023-01-28T14:53:08;4.50;98.60
52024;DHT22;38038;45.922;13.604;2023-01-28T14:58:33;4.60;98.60
52024;DHT22;38038;45.922;13.604;2023-01-28T15:01:00;4.50;98.80
52024;DHT22;38038;45.922;13.604;2023-01-28T15:03:28;4.50;98.70
52024;DHT22;38038;45.922;13.604;2023-01-28T15:06:05;4.60;98.50
52024;DHT22;38038;45.922;13.604;2023-01-28T15:08:31;4.40;99.00
52024;DHT22;38038;45.922;13.604;2023-01-28T15:10:59;4.40;99.00
52024;DHT22;38038;45.922;13.604;2023-01-28T15:13:29;4.40;99.10
52024;DHT22;38038;45.922;13.604;2023-01-28T15:15:57;4.30;99.30
52024;DHT22;38038;45.922;13.604;2023-01-28T15:18:45;4.30;99.10
52024;DHT22;38038;45.922;13.604;2023-01-28T15:21:19;4.30;99.10
52024;DHT22;38038;45.922;13.604;2023-01-28T15:23:48;4.10;99.70
52024;DHT22;38038;45.922;13.604;2023-01-28T15:26:17;4.10;99.40
52024;DHT22;38038;45.922;13.604;2023-01-28T15:28:45;4.00;99.80
52024;DHT22;38038;45.922;13.604;2023-01-28T15:31:31;3.90;99.80
52024;DHT22;38038;45.922;13.604;2023-01-28T15:34:12;3.90;99.90
52024;DHT22;38038;45.922;13.604;2023-01-28T15:36:38;4.00;99.90
52024;DHT22;38038;45.922;13.604;2023-01-28T15:39:11;4.00;99.90
52024;DHT22;38038;45.922;13.604;2023-01-28T15:41:38;3.90;99.90
52024;DHT22;38038;45.922;13.604;2023-01-28T15:44:06;3.70;99.90
52024;DHT22;38038;45.922;13.604;2023-01-28T15:46:32;3.80;99.90
52024;DHT22;38038;45.922;13.604;2023-01-28T15:49:00;3.70;99.90
52024;DHT22;38038;45.922;13.604;2023-01-28T15:51:31;3.70;99.90
52024;DHT22;38038;45.922;13.604;2023-01-28T15:54:09;3.70;99.90
52024;DHT22;38038;45.922;13.604;2023-01-28T15:56:35;3.80;99.90
52024;DHT22;38038;45.922;13.604;2023-01-28T15:59:28;3.70;99.90
52024;DHT22;38038;45.922;13.604;2023-01-28T16:02:18;3.70;99.90
52024;DHT22;38038;45.922;13.604;2023-01-28T16:04:55;3.70;99.90
52024;DHT22;38038;45.922;13.604;2023-01-28T16:07:22;3.60;99.90
52024;DHT22;38038;45.922;13.604;2023-01-28T16:09:51;3.50;99.90
52024;DHT22;38038;45.922;13.604;2023-01-28T16:12:19;3.50;99.90
52024;DHT22;38038;45.922;13.604;2023-01-28T16:14:54;3.50;99.90
52024;DHT22;38038;45.922;13.604;2023-01-28T16:17:20;3.50;99.90
52024;DHT22;38038;45.922;13.604;2023-01-28T16:20:18;3.50;99.90
52024;DHT22;38038;45.922;13.604;2023-01-28T16:22:36;3.40;99.90
52024;DHT22;38038;45.922;13.604;2023-01-28T16:25:22;3.50;99.90
52024;DHT22;38038;45.922;13.604;2023-01-28T16:27:49;3.50;99.90
52024;DHT22;38038;45.922;13.604;2023-01-28T16:30:15;3.50;99.90
52024;DHT22;38038;45.922;13.604;2023-01-28T16:32:41;3.50;99.90
52024;DHT22;38038;45.922;13.604;2023-01-28T16:35:27;3.50;99.90
52024;DHT22;38038;45.922;13.604;2023-01-28T16:37:53;3.50;99.90
52024;DHT22;38038;45.922;13.604;2023-01-28T16:40:23;3.50;99.90
52024;DHT22;38038;45.922;13.604;2023-01-28T16:42:52;3.50;99.90
52024;DHT22;38038;45.922;13.604;2023-01-28T16:45:23;3.50;99.90
52024;DHT22;38038;45.922;13.604;2023-01-28T16:47:50;3.40;99.90
52024;DHT22;38038;45.922;13.604;2023-01-28T16:50:16;3.40;99.90
52024;DHT22;38038;45.922;13.604;2023-01-28T16:52:44;3.40;99.90
52024;DHT22;38038;45.922;13.604;2023-01-28T16:55:15;3.30;99.90
52024;DHT22;38038;45.922;13.604;2023-01-28T16:57:42;3.30;99.90
52024;DHT22;38038;45.922;13.604;2023-01-28T17:00:22;3.30;99.90
52024;DHT22;38038;45.922;13.604;2023-01-28T17:02:49;3.40;99.90
52024;DHT22;38038;45.922;13.604;2023-01-28T17:05:15;3.30;99.90
52024;DHT22;38038;45.922;13.604;2023-01-28T17:07:41;3.40;99.90
52024;DHT22;38038;45.922;13.604;2023-01-28T17:10:08;3.30;99.90
52024;DHT22;38038;45.922;13.604;2023-01-28T17:12:34;3.40;99.90
52024;DHT22;38038;45.922;13.604;2023-01-28T17:14:59;3.40;99.90
52024;DHT22;38038;45.922;13.604;2023-01-28T17:17:25;3.40;99.90
52024;DHT22;38038;45.922;13.604;2023-01-28T17:19:51;3.30;99.90
52024;DHT22;38038;45.922;13.604;2023-01-28T17:22:16;3.30;99.90
52024;DHT22;38038;45.922;13.604;2023-01-28T17:24:42;3.30;99.90
52024;DHT22;38038;45.922;13.604;2023-01-28T17:27:08;3.30;99.90
52024;DHT22;38038;45.922;13.604;2023-01-28T17:29:34;3.30;99.90
52024;DHT22;38038;45.922;13.604;2023-01-28T17:32:00;3.20;99.90
52024;DHT22;38038;45.922;13.604;2023-01-28T17:34:26;3.20;99.90
52024;DHT22;38038;45.922;13.604;2023-01-28T17:36:52;3.20;99.90
52024;DHT22;38038;45.922;13.604;2023-01-28T17:39:17;3.20;99.90
52024;DHT22;38038;45.922;13.604;2023-01-28T17:41:43;3.20;99.90
52024;DHT22;38038;45.922;13.604;2023-01-28T17:44:11;3.20;99.90
52024;DHT22;38038;45.922;13.604;2023-01-28T17:46:39;3.20;99.90
52024;DHT22;38038;45.922;13.604;2023-01-28T17:49:05;3.10;99.90
52024;DHT22;38038;45.922;13.604;2023-01-28T17:51:31;3.20;99.90
52024;DHT22;38038;45.922;13.604;2023-01-28T17:53:57;3.10;99.90
52024;DHT22;38038;45.922;13.604;2023-01-28T17:56:25;3.00;99.90
52024;DHT22;38038;45.922;13.604;2023-01-28T17:58:57;3.10;99.90
52024;DHT22;38038;45.922;13.604;2023-01-28T18:01:24;3.00;99.90
52024;DHT22;38038;45.922;13.604;2023-01-28T18:03:50;3.10;99.90
52024;DHT22;38038;45.922;13.604;2023-01-28T18:06:16;3.10;99.90
52024;DHT22;38038;45.922;13.604;2023-01-28T18:08:42;3.20;99.90
52024;DHT22;38038;45.922;13.604;2023-01-28T18:11:10;3.20;99.90
52024;DHT22;38038;45.922;13.604;2023-01-28T18:13:40;3.10;99.90
52024;DHT22;38038;45.922;13.604;2023-01-28T18:16:08;3.10;99.90
52024;DHT22;38038;45.922;13.604;2023-01-28T18:18:35;3.20;99.90
52024;DHT22;38038;45.922;13.604;2023-01-28T18:21:03;3.10;99.90
52024;DHT22;38038;45.922;13.604;2023-01-28T18:23:30;3.10;99.90
52024;DHT22;38038;45.922;13.604;2023-01-28T18:25:57;3.10;99.90
52024;DHT22;38038;45.922;13.604;2023-01-28T18:28:24;3.10;99.90
52024;DHT22;38038;45.922;13.604;2023-01-28T18:30:49;3.10;99.90
52024;DHT22;38038;45.922;13.604;2023-01-28T18:33:16;3.10;99.90
52024;DHT22;38038;45.922;13.604;2023-01-28T18:35:43;3.10;99.90
52024;DHT22;38038;45.922;13.604;2023-01-28T18:38:09;3.10;99.90
52024;DHT22;38038;45.922;13.604;2023-01-28T18:40:35;3.10;99.90
52024;DHT22;38038;45.922;13.604;2023-01-28T18:43:01;3.10;99.90
52024;DHT22;38038;45.922;13.604;2023-01-28T18:45:27;3.10;99.90
52024;DHT22;38038;45.922;13.604;2023-01-28T18:47:52;3.10;99.90
52024;DHT22;38038;45.922;13.604;2023-01-28T18:50:18;3.20;99.90
52024;DHT22;38038;45.922;13.604;2023-01-28T18:52:44;3.20;99.90
52024;DHT22;38038;45.922;13.604;2023-01-28T18:55:10;3.20;99.90
52024;DHT22;38038;45.922;13.604;2023-01-28T18:57:35;3.20;99.90
52024;DHT22;38038;45.922;13.604;2023-01-28T19:00:02;3.20;99.90
52024;DHT22;38038;45.922;13.604;2023-01-28T19:02:28;3.20;99.90
52024;DHT22;38038;45.922;13.604;2023-01-28T19:04:57;3.20;99.90
52024;DHT22;38038;45.922;13.604;2023-01-28T19:07:22;3.20;99.90
52024;DHT22;38038;45.922;13.604;2023-01-28T19:09:48;3.20;99.90
52024;DHT22;38038;45.922;13.604;2023-01-28T19:12:14;3.20;99.90
52024;DHT22;38038;45.922;13.604;2023-01-28T19:14:39;3.30;99.90
52024;DHT22;38038;45.922;13.604;2023-01-28T19:17:05;3.20;99.90
52024;DHT22;38038;45.922;13.604;2023-01-28T19:19:31;3.20;99.90
52024;DHT22;38038;45.922;13.604;2023-01-28T19:21:57;3.30;99.90
52024;DHT22;38038;45.922;13.604;2023-01-28T19:24:22;3.40;99.90
52024;DHT22;38038;45.922;13.604;2023-01-28T19:26:48;3.30;99.90
52024;DHT22;38038;45.922;13.604;2023-01-28T19:29:14;3.30;99.90
52024;DHT22;38038;45.922;13.604;2023-01-28T19:31:40;3.30;99.90
52024;DHT22;38038;45.922;13.604;2023-01-28T19:34:09;3.30;99.90
52024;DHT22;38038;45.922;13.604;2023-01-28T19:36:35;3.30;99.90
52024;DHT22;38038;45.922;13.604;2023-01-28T19:39:04;3.40;99.90
52024;DHT22;38038;45.922;13.604;2023-01-28T19:41:31;3.40;99.90
52024;DHT22;38038;45.922;13.604;2023-01-28T19:43:57;3.40;99.90
52024;DHT22;38038;45.922;13.604;2023-01-28T19:46:23;3.40;99.90
52024;DHT22;38038;45.922;13.604;2023-01-28T19:48:49;3.40;99.90
52024;DHT22;38038;45.922;13.604;2023-01-28T19:51:15;3.50;99.90
52024;DHT22;38038;45.922;13.604;2023-01-28T19:53:42;3.40;99.90
52024;DHT22;38038;45.922;13.604;2023-01-28T19:56:13;3.30;99.90
52024;DHT22;38038;45.922;13.604;2023-01-28T19:58:41;3.40;99.90
52024;DHT22;38038;45.922;13.604;2023-01-28T20:01:10;3.30;99.90
52024;DHT22;38038;45.922;13.604;2023-01-28T20:03:36;3.40;99.90
52024;DHT22;38038;45.922;13.604;2023-01-28T20:06:12;3.40;99.90
52024;DHT22;38038;45.922;13.604;2023-01-28T20:08:38;3.40;99.90
52024;DHT22;38038;45.922;13.604;2023-01-28T20:11:06;3.40;99.90
52024;DHT22;38038;45.922;13.604;2023-01-28T20:13:33;3.40;99.90
52024;DHT22;38038;45.922;13.604;2023-01-28T20:16:07;3.40;99.90
52024;DHT22;38038;45.922;13.604;2023-01-28T20:18:33;3.40;99.90
52024;DHT22;38038;45.922;13.604;2023-01-28T20:21:00;3.40;99.90
52024;DHT22;38038;45.922;13.604;2023-01-28T20:23:26;3.40;99.90
52024;DHT22;38038;45.922;13.604;2023-01-28T20:25:54;3.30;99.90
52024;DHT22;38038;45.922;13.604;2023-01-28T20:28:21;3.30;99.90
52024;DHT22;38038;45.922;13.604;2023-01-28T20:30:47;3.30;99.90
52024;DHT22;38038;45.922;13.604;2023-01-28T20:33:13;3.40;99.90
52024;DHT22;38038;45.922;13.604;2023-01-28T20:35:39;3.30;99.90
52024;DHT22;38038;45.922;13.604;2023-01-28T20:38:04;3.40;99.90
52024;DHT22;38038;45.922;13.604;2023-01-28T20:40:30;3.40;99.90
52024;DHT22;38038;45.922;13.604;2023-01-28T20:42:56;3.30;99.90
52024;DHT22;38038;45.922;13.604;2023-01-28T20:45:22;3.20;99.90
52024;DHT22;38038;45.922;13.604;2023-01-28T20:47:48;3.30;99.90
52024;DHT22;38038;45.922;13.604;2023-01-28T20:50:14;3.30;99.90
52024;DHT22;38038;45.922;13.604;2023-01-28T20:52:40;3.30;99.90
52024;DHT22;38038;45.922;13.604;2023-01-28T20:55:07;3.30;99.90
52024;DHT22;38038;45.922;13.604;2023-01-28T20:57:34;3.20;99.90
52024;DHT22;38038;45.922;13.604;2023-01-28T21:00:03;3.20;99.90
52024;DHT22;38038;45.922;13.604;2023-01-28T21:02:29;3.10;99.90
52024;DHT22;38038;45.922;13.604;2023-01-28T21:04:56;3.20;99.90
52024;DHT22;38038;45.922;13.604;2023-01-28T21:07:21;3.20;99.90
52024;DHT22;38038;45.922;13.604;2023-01-28T21:09:47;3.30;99.90
52024;DHT22;38038;45.922;13.604;2023-01-28T21:12:13;3.40;99.90
52024;DHT22;38038;45.922;13.604;2023-01-28T21:14:38;3.40;99.90
52024;DHT22;38038;45.922;13.604;2023-01-28T21:17:04;3.40;99.90
52024;DHT22;38038;45.922;13.604;2023-01-28T21:19:30;3.30;99.90
52024;DHT22;38038;45.922;13.604;2023-01-28T21:21:55;3.30;99.90
52024;DHT22;38038;45.922;13.604;2023-01-28T21:24:21;3.30;99.90
52024;DHT22;38038;45.922;13.604;2023-01-28T21:26:47;3.30;99.90
52024;DHT22;38038;45.922;13.604;2023-01-28T21:29:12;3.30;99.90
52024;DHT22;38038;45.922;13.604;2023-01-28T21:31:39;3.30;99.90
52024;DHT22;38038;45.922;13.604;2023-01-28T21:34:05;3.30;99.90
52024;DHT22;38038;45.922;13.604;2023-01-28T21:36:30;3.30;99.90
52024;DHT22;38038;45.922;13.604;2023-01-28T21:38:59;3.30;99.90
52024;DHT22;38038;45.922;13.604;2023-01-28T21:41:26;3.40;99.90
52024;DHT22;38038;45.922;13.604;2023-01-28T21:43:53;3.30;99.90
52024;DHT22;38038;45.922;13.604;2023-01-28T21:46:20;3.30;99.90
52024;DHT22;38038;45.922;13.604;2023-01-28T21:48:46;3.30;99.90
52024;DHT22;38038;45.922;13.604;2023-01-28T21:51:12;3.30;99.90
52024;DHT22;38038;45.922;13.604;2023-01-28T21:53:56;3.30;99.90
52024;DHT22;38038;45.922;13.604;2023-01-28T21:56:21;3.30;99.90
52024;DHT22;38038;45.922;13.604;2023-01-28T21:58:47;3.30;99.90
52024;DHT22;38038;45.922;13.604;2023-01-28T22:01:32;3.30;99.90
52024;DHT22;38038;45.922;13.604;2023-01-28T22:03:57;3.30;99.90
52024;DHT22;38038;45.922;13.604;2023-01-28T22:06:23;3.30;99.90
52024;DHT22;38038;45.922;13.604;2023-01-28T22:08:51;3.30;99.90
52024;DHT22;38038;45.922;13.604;2023-01-28T22:11:17;3.30;99.90
52024;DHT22;38038;45.922;13.604;2023-01-28T22:13:43;3.20;99.90
52024;DHT22;38038;45.922;13.604;2023-01-28T22:16:09;3.10;99.90
52024;DHT22;38038;45.922;13.604;2023-01-28T22:18:35;3.10;99.90
52024;DHT22;38038;45.922;13.604;2023-01-28T22:21:03;3.10;99.90
52024;DHT22;38038;45.922;13.604;2023-01-28T22:23:29;3.10;99.90
52024;DHT22;38038;45.922;13.604;2023-01-28T22:25:56;3.00;99.90
52024;DHT22;38038;45.922;13.604;2023-01-28T22:28:24;3.00;99.90
52024;DHT22;38038;45.922;13.604;2023-01-28T22:30:50;2.90;99.90
52024;DHT22;38038;45.922;13.604;2023-01-28T22:33:16;2.90;99.90
52024;DHT22;38038;45.922;13.604;2023-01-28T22:35:41;2.90;99.90
52024;DHT22;38038;45.922;13.604;2023-01-28T22:38:07;2.90;99.90
52024;DHT22;38038;45.922;13.604;2023-01-28T22:40:33;3.00;99.90
52024;DHT22;38038;45.922;13.604;2023-01-28T22:42:59;3.10;99.90
52024;DHT22;38038;45.922;13.604;2023-01-28T22:45:25;3.20;99.90
52024;DHT22;38038;45.922;13.604;2023-01-28T22:47:51;3.30;99.90
52024;DHT22;38038;45.922;13.604;2023-01-28T22:50:17;3.20;99.90
52024;DHT22;38038;45.922;13.604;2023-01-28T22:52:43;3.30;99.90
52024;DHT22;38038;45.922;13.604;2023-01-28T22:55:08;3.40;99.90
52024;DHT22;38038;45.922;13.604;2023-01-28T22:57:34;3.30;99.90
52024;DHT22;38038;45.922;13.604;2023-01-28T23:00:01;3.30;99.90
52024;DHT22;38038;45.922;13.604;2023-01-28T23:02:26;3.20;99.90
52024;DHT22;38038;45.922;13.604;2023-01-28T23:04:52;3.20;99.90
52024;DHT22;38038;45.922;13.604;2023-01-28T23:07:18;3.10;99.90
52024;DHT22;38038;45.922;13.604;2023-01-28T23:09:43;3.20;99.90
52024;DHT22;38038;45.922;13.604;2023-01-28T23:12:10;3.30;99.90
52024;DHT22;38038;45.922;13.604;2023-01-28T23:14:36;3.30;99.90
52024;DHT22;38038;45.922;13.604;2023-01-28T23:17:20;3.40;99.90
52024;DHT22;38038;45.922;13.604;2023-01-28T23:20:05;3.40;99.90
52024;DHT22;38038;45.922;13.604;2023-01-28T23:22:49;3.30;99.90
52024;DHT22;38038;45.922;13.604;2023-01-28T23:25:33;3.20;99.90
52024;DHT22;38038;45.922;13.604;2023-01-28T23:27:59;3.20;99.90
52024;DHT22;38038;45.922;13.604;2023-01-28T23:30:25;3.20;99.90
52024;DHT22;38038;45.922;13.604;2023-01-28T23:32:55;3.20;99.90
52024;DHT22;38038;45.922;13.604;2023-01-28T23:35:21;3.20;99.90
52024;DHT22;38038;45.922;13.604;2023-01-28T23:37:47;3.10;99.90
52024;DHT22;38038;45.922;13.604;2023-01-28T23:40:13;3.10;99.90
52024;DHT22;38038;45.922;13.604;2023-01-28T23:42:39;3.10;99.90
52024;DHT22;38038;45.922;13.604;2023-01-28T23:45:06;3.30;99.90
52024;DHT22;38038;45.922;13.604;2023-01-28T23:47:32;3.30;99.90
52024;DHT22;38038;45.922;13.604;2023-01-28T23:49:58;3.30;99.90
52024;DHT22;38038;45.922;13.604;2023-01-28T23:52:24;3.30;99.90
52024;DHT22;38038;45.922;13.604;2023-01-28T23:54:51;3.30;99.90
52024;DHT22;38038;45.922;13.604;2023-01-28T23:57:17;3.40;99.90
52024;DHT22;38038;45.922;13.604;2023-01-28T23:59:42;3.40;99.90
